Terminal Aerodrome Forecast
Issued by NWS Wilmington, OH

Current Version | Previous Version | Graphics & Text | Print | Product List | Glossary On
Versions: 1 2 3 4 5 6 7 8 9 10 11 12 13 14 15 16 17 18 19 20 21 22 23 24 25 26 27 28 29 30 31 32 33
000
FTUS41 KILN 231000 AAC
TAFILN
TAF AMD
KILN 231007Z 2310/2406 00000KT 1/4SM FG VV001
     FM231300 00000KT 4SM BR BKN012
     FM231500 09003KT P6SM BKN018
     FM231700 10005KT P6SM BKN035
     FM240100 04005KT P6SM BKN040
     FM240400 00000KT 2SM BR SCT040=

USA.gov is the U.S. government's official web portal to all federal, state and local government web resources and services.